createdAt,value
2019-03-22T00:00:31.632Z,99.9
2019-03-22T00:01:38.834Z,99.9
2019-03-22T00:02:46.030Z,99.9
2019-03-22T00:03:53.237Z,99.9
2019-03-22T00:05:00.369Z,99.9
2019-03-22T00:06:07.568Z,99.9
2019-03-22T00:07:14.771Z,99.9
2019-03-22T00:08:21.979Z,99.9
2019-03-22T00:09:29.179Z,99.9
2019-03-22T00:10:36.405Z,99.9
2019-03-22T00:11:43.601Z,99.9
2019-03-22T00:12:50.800Z,99.9
2019-03-22T00:13:58.004Z,99.9
2019-03-22T00:15:05.225Z,99.9
2019-03-22T00:16:12.430Z,99.9
2019-03-22T00:17:19.625Z,99.9
2019-03-22T00:18:26.821Z,99.9
2019-03-22T00:19:34.019Z,99.9
2019-03-22T00:20:41.229Z,99.9
2019-03-22T00:21:48.626Z,99.9
2019-03-22T00:22:55.822Z,99.9
2019-03-22T00:24:02.745Z,99.9
2019-03-22T00:25:09.949Z,99.9
2019-03-22T00:26:17.146Z,99.9
2019-03-22T00:27:24.344Z,99.9
2019-03-22T00:28:31.550Z,99.9
2019-03-22T00:29:38.746Z,99.9
2019-03-22T00:30:45.668Z,99.9
2019-03-22T00:31:52.591Z,99.9
2019-03-22T00:32:59.519Z,99.9
2019-03-22T00:34:06.716Z,99.9
2019-03-22T00:35:13.918Z,99.9
2019-03-22T00:36:20.853Z,99.9
2019-03-22T00:37:28.053Z,99.9
2019-03-22T00:38:34.985Z,99.9
2019-03-22T00:39:41.646Z,99.9
2019-03-22T00:40:48.578Z,99.9
2019-03-22T00:41:55.502Z,99.9
2019-03-22T00:43:02.443Z,99.9
2019-03-22T00:44:09.641Z,99.9
2019-03-22T00:45:16.839Z,99.9
2019-03-22T00:46:24.039Z,99.9
2019-03-22T00:47:30.973Z,99.9
2019-03-22T00:48:37.903Z,99.9
2019-03-22T00:49:45.108Z,99.9
2019-03-22T00:50:52.304Z,99.9
2019-03-22T00:51:59.500Z,99.9
2019-03-22T00:53:06.697Z,99.9
2019-03-22T00:54:13.896Z,99.9
2019-03-22T00:55:21.095Z,99.9
2019-03-22T00:56:28.299Z,99.9
2019-03-22T00:57:35.229Z,99.9
2019-03-22T00:58:42.146Z,99.9
2019-03-22T00:59:49.349Z,99.9
2019-03-22T01:00:56.284Z,99.9
2019-03-22T01:02:03.479Z,99.9
2019-03-22T01:03:10.679Z,99.9
2019-03-22T01:04:17.899Z,99.9
2019-03-22T01:05:25.098Z,99.9
2019-03-22T01:06:32.304Z,99.9
2019-03-22T01:07:39.503Z,99.9
2019-03-22T01:08:46.473Z,99.9
2019-03-22T01:09:53.397Z,99.9
2019-03-22T01:11:00.596Z,99.9
2019-03-22T01:12:07.792Z,99.9
2019-03-22T01:13:15.006Z,99.9
2019-03-22T01:14:22.418Z,99.9
2019-03-22T01:15:29.616Z,99.9
2019-03-22T01:16:36.854Z,99.9
2019-03-22T01:17:43.786Z,99.9
2019-03-22T01:18:50.711Z,99.9
2019-03-22T01:19:57.643Z,99.9
2019-03-22T01:21:04.844Z,99.9
2019-03-22T01:22:12.043Z,99.9
2019-03-22T01:23:18.690Z,99.9
2019-03-22T01:24:25.622Z,99.9
2019-03-22T01:25:32.546Z,99.9
2019-03-22T01:26:39.492Z,99.9
2019-03-22T01:27:46.415Z,99.9
2019-03-22T01:28:53.610Z,99.9
2019-03-22T01:30:00.810Z,99.9
2019-03-22T01:31:08.015Z,99.9
2019-03-22T01:32:15.221Z,99.9
2019-03-22T01:33:22.140Z,99.9
2019-03-22T01:34:29.568Z,99.9
2019-03-22T01:35:36.495Z,99.9
2019-03-22T01:36:43.424Z,99.9
2019-03-22T01:37:50.620Z,99.9
2019-03-22T01:38:57.820Z,99.9
2019-03-22T01:40:05.022Z,99.9
2019-03-22T01:41:12.225Z,99.9
2019-03-22T01:42:19.148Z,99.9
2019-03-22T01:43:26.346Z,99.9
2019-03-22T01:44:33.546Z,99.9
2019-03-22T01:45:40.742Z,99.9
2019-03-22T01:46:47.939Z,99.9
2019-03-22T01:47:54.869Z,99.9
2019-03-22T01:49:02.070Z,99.9
2019-03-22T01:50:09.000Z,99.9
2019-03-22T01:51:15.925Z,99.9
2019-03-22T01:52:23.127Z,99.9
2019-03-22T01:53:30.330Z,99.9
2019-03-22T01:54:37.528Z,99.9
2019-03-22T01:55:44.729Z,99.9
2019-03-22T01:56:51.674Z,99.9
2019-03-22T01:57:58.876Z,99.9
2019-03-22T01:59:06.079Z,99.9
2019-03-22T02:00:13.283Z,99.9
2019-03-22T02:01:20.503Z,99.9
2019-03-22T02:02:27.705Z,99.9
2019-03-22T02:03:34.902Z,99.9
2019-03-22T02:04:42.135Z,99.9
2019-03-22T02:05:49.339Z,99.9
2019-03-22T02:06:56.533Z,99.9
2019-03-22T02:08:03.730Z,99.9
2019-03-22T02:09:10.652Z,99.9
2019-03-22T02:10:17.845Z,99.9
2019-03-22T02:11:25.050Z,99.9
2019-03-22T02:12:32.248Z,99.9
2019-03-22T02:13:39.176Z,99.9
2019-03-22T02:14:46.373Z,99.9
2019-03-22T02:15:53.581Z,99.9
2019-03-22T02:17:00.781Z,99.9
2019-03-22T02:18:07.700Z,99.9
2019-03-22T02:19:14.629Z,99.9
2019-03-22T02:20:21.822Z,99.9
2019-03-22T02:21:29.026Z,99.9
2019-03-22T02:22:35.953Z,99.9
2019-03-22T02:23:43.151Z,99.9
2019-03-22T02:24:50.070Z,99.9
2019-03-22T02:25:57.271Z,99.9
2019-03-22T02:27:04.471Z,99.9
2019-03-22T02:28:11.408Z,99.9
2019-03-22T02:29:18.064Z,99.9
2019-03-22T02:30:24.994Z,99.9
2019-03-22T02:31:32.193Z,99.9
2019-03-22T02:32:39.403Z,99.9
2019-03-22T02:33:46.601Z,99.9
2019-03-22T02:34:53.799Z,99.9
2019-03-22T02:36:01.003Z,99.9
2019-03-22T02:37:08.218Z,99.9
2019-03-22T02:38:15.409Z,99.9
2019-03-22T02:39:22.644Z,99.9
2019-03-22T02:40:30.326Z,99.9
2019-03-22T02:41:37.935Z,99.9
2019-03-22T02:42:45.140Z,99.9
2019-03-22T02:43:54.690Z,99.9
2019-03-22T02:45:02.095Z,99.9
2019-03-22T02:46:09.292Z,99.9
2019-03-22T02:47:16.490Z,99.9
2019-03-22T02:48:23.690Z,99.9
2019-03-22T02:49:30.885Z,99.9
2019-03-22T02:50:38.080Z,99.9
2019-03-22T02:51:45.008Z,99.9
2019-03-22T02:52:52.214Z,99.9
2019-03-22T02:53:59.442Z,99.9
2019-03-22T02:55:06.352Z,99.9
2019-03-22T02:56:13.729Z,99.9
2019-03-22T02:57:21.538Z,99.9
2019-03-22T02:58:28.819Z,99.9
2019-03-22T02:59:36.015Z,99.9
2019-03-22T03:00:43.219Z,99.9
2019-03-22T03:01:50.504Z,99.9
2019-03-22T03:02:57.789Z,99.9
2019-03-22T03:04:04.982Z,99.9
2019-03-22T03:05:12.190Z,99.9
2019-03-22T03:06:19.448Z,99.9
2019-03-22T03:07:26.703Z,99.9
2019-03-22T03:08:33.628Z,99.9
2019-03-22T03:09:40.832Z,99.9
2019-03-22T03:10:48.033Z,99.9
2019-03-22T03:11:54.965Z,99.9
2019-03-22T03:13:01.889Z,99.9
2019-03-22T03:14:09.085Z,99.9
2019-03-22T03:15:16.075Z,99.9
2019-03-22T03:16:23.292Z,99.9
2019-03-22T03:17:30.482Z,99.9
2019-03-22T03:18:37.680Z,99.9
2019-03-22T03:19:44.895Z,99.9
2019-03-22T03:20:52.086Z,99.9
2019-03-22T03:21:59.293Z,99.9
2019-03-22T03:23:05.949Z,99.9
2019-03-22T03:24:13.147Z,99.9
2019-03-22T03:25:20.347Z,99.9
2019-03-22T03:26:27.546Z,99.9
2019-03-22T03:27:34.763Z,99.9
2019-03-22T03:28:41.964Z,99.9
2019-03-22T03:29:48.885Z,99.9
2019-03-22T03:30:56.088Z,99.9
2019-03-22T03:32:03.287Z,99.9
2019-03-22T03:33:10.482Z,99.9
2019-03-22T03:34:17.743Z,99.9
2019-03-22T03:35:24.992Z,99.9
2019-03-22T03:36:34.751Z,99.9
2019-03-22T03:37:42.228Z,99.9
2019-03-22T03:38:49.436Z,99.9
2019-03-22T03:39:56.626Z,99.9
2019-03-22T03:41:03.556Z,99.9
2019-03-22T03:42:10.487Z,99.9
2019-03-22T03:43:17.693Z,99.9
2019-03-22T03:44:24.896Z,99.9
2019-03-22T03:45:32.097Z,99.9
2019-03-22T03:46:39.412Z,99.9
2019-03-22T03:47:46.613Z,99.9
2019-03-22T03:48:53.809Z,99.9
2019-03-22T03:50:01.017Z,99.9
2019-03-22T03:51:08.226Z,99.9
2019-03-22T03:52:15.438Z,99.9
2019-03-22T03:53:22.363Z,99.9
2019-03-22T03:54:29.303Z,99.9
2019-03-22T03:55:36.511Z,99.9
2019-03-22T03:56:43.708Z,99.9
2019-03-22T03:57:50.932Z,99.9
2019-03-22T03:58:58.147Z,99.9
2019-03-22T04:00:05.346Z,99.9
2019-03-22T04:01:12.272Z,99.9
2019-03-22T04:02:19.479Z,99.9
2019-03-22T04:03:26.748Z,99.9
2019-03-22T04:04:33.945Z,99.9
2019-03-22T04:05:40.896Z,99.9
2019-03-22T04:06:48.131Z,99.9
2019-03-22T04:07:55.350Z,99.9
2019-03-22T04:09:02.641Z,99.9
2019-03-22T04:10:09.830Z,99.9
2019-03-22T04:11:17.028Z,99.9
2019-03-22T04:12:23.961Z,99.9
2019-03-22T04:13:31.154Z,99.9
2019-03-22T04:14:38.076Z,99.9
2019-03-22T04:15:45.274Z,99.9
2019-03-22T04:16:52.474Z,99.9
2019-03-22T04:17:59.678Z,99.9
2019-03-22T04:19:06.876Z,99.9
2019-03-22T04:20:14.072Z,99.9
2019-03-22T04:21:21.011Z,99.9
2019-03-22T04:22:28.222Z,99.9
2019-03-22T04:23:35.405Z,99.9
2019-03-22T04:24:42.600Z,99.9
2019-03-22T04:25:49.527Z,99.9
2019-03-22T04:26:56.731Z,99.9
2019-03-22T04:28:03.931Z,99.9
2019-03-22T04:29:11.127Z,99.9
2019-03-22T04:30:18.322Z,99.9
2019-03-22T04:31:25.254Z,99.9
2019-03-22T04:32:32.456Z,99.9
2019-03-22T04:33:39.658Z,99.9
2019-03-22T04:34:46.845Z,99.9
2019-03-22T04:35:54.052Z,99.9
2019-03-22T04:37:01.238Z,99.9
2019-03-22T04:38:08.440Z,99.9
2019-03-22T04:39:15.641Z,99.9
2019-03-22T04:40:22.565Z,99.9
2019-03-22T04:41:29.812Z,99.9
2019-03-22T04:42:37.011Z,99.9
2019-03-22T04:43:43.933Z,99.9
2019-03-22T04:44:50.871Z,99.9
2019-03-22T04:45:58.075Z,99.9
2019-03-22T04:47:05.263Z,99.9
2019-03-22T04:48:12.458Z,99.9
2019-03-22T04:49:19.382Z,99.9
2019-03-22T04:50:26.299Z,99.9
2019-03-22T04:51:33.495Z,99.9
2019-03-22T04:52:40.706Z,99.9
2019-03-22T04:53:47.902Z,99.9
2019-03-22T04:54:55.102Z,99.9
2019-03-22T04:56:02.300Z,99.9
2019-03-22T04:57:09.497Z,99.9
2019-03-22T04:58:16.693Z,99.9
2019-03-22T04:59:23.888Z,99.9
2019-03-22T05:00:31.086Z,99.9
2019-03-22T05:01:38.282Z,99.9
2019-03-22T05:02:45.481Z,99.9
2019-03-22T05:03:52.671Z,99.9
2019-03-22T05:04:59.596Z,99.9
2019-03-22T05:06:06.956Z,99.9
2019-03-22T05:07:14.217Z,99.9
2019-03-22T05:08:21.416Z,99.9
2019-03-22T05:09:28.615Z,99.9
2019-03-22T05:10:35.809Z,99.9
2019-03-22T05:11:43.005Z,99.9
2019-03-22T05:12:50.203Z,99.9
2019-03-22T05:13:57.450Z,99.9
2019-03-22T05:15:04.371Z,99.9
2019-03-22T05:16:11.570Z,99.9
2019-03-22T05:17:18.502Z,99.9
2019-03-22T05:18:25.697Z,99.9
2019-03-22T05:19:32.895Z,99.9
2019-03-22T05:20:40.092Z,99.9
2019-03-22T05:21:47.293Z,99.9
2019-03-22T05:22:54.219Z,99.9
2019-03-22T05:24:01.417Z,99.9
2019-03-22T05:25:08.616Z,99.9
2019-03-22T05:26:15.263Z,99.9
2019-03-22T05:27:22.457Z,99.9
2019-03-22T05:28:29.649Z,99.9
2019-03-22T05:29:38.790Z,99.9
2019-03-22T05:30:45.916Z,99.9
2019-03-22T05:31:53.110Z,99.9
2019-03-22T05:33:00.040Z,99.9
2019-03-22T05:34:07.241Z,99.9
2019-03-22T05:35:14.436Z,99.9
2019-03-22T05:36:21.352Z,99.9
2019-03-22T05:37:28.283Z,99.9
2019-03-22T05:38:35.480Z,99.9
2019-03-22T05:39:42.680Z,99.9
2019-03-22T05:40:49.883Z,99.9
2019-03-22T05:41:57.113Z,99.9
2019-03-22T05:43:04.299Z,99.9
2019-03-22T05:44:11.501Z,99.9
2019-03-22T05:45:18.699Z,99.9
2019-03-22T05:46:25.899Z,99.9
2019-03-22T05:47:33.098Z,99.9
2019-03-22T05:48:40.308Z,99.9
2019-03-22T05:49:47.236Z,99.9
2019-03-22T05:50:54.446Z,99.9
2019-03-22T05:52:01.648Z,99.9
2019-03-22T05:53:08.847Z,99.9
2019-03-22T05:54:16.145Z,99.9
2019-03-22T05:55:23.335Z,99.9
2019-03-22T05:56:30.531Z,99.9
2019-03-22T05:57:37.457Z,99.9
2019-03-22T05:58:44.607Z,99.9
2019-03-22T05:59:51.783Z,99.9
2019-03-22T06:00:58.999Z,99.9
2019-03-22T06:02:06.200Z,99.9
2019-03-22T06:03:13.115Z,99.9
2019-03-22T06:04:20.042Z,99.9
2019-03-22T06:05:27.244Z,99.9
2019-03-22T06:06:33.614Z,99.9
2019-03-22T06:07:40.818Z,99.9
2019-03-22T06:08:48.016Z,99.9
2019-03-22T06:09:54.942Z,99.9
2019-03-22T06:11:01.867Z,99.9
2019-03-22T06:12:08.791Z,99.9
2019-03-22T06:13:15.985Z,99.9
2019-03-22T06:14:23.183Z,99.9
2019-03-22T06:15:30.104Z,99.9
2019-03-22T06:16:37.307Z,99.9
2019-03-22T06:17:51.403Z,99.9
2019-03-22T06:18:59.075Z,99.9
2019-03-22T06:20:06.270Z,99.9
2019-03-22T06:21:13.464Z,99.9
2019-03-22T06:22:20.664Z,99.9
2019-03-22T06:23:27.867Z,99.9
2019-03-22T06:24:35.067Z,99.9
2019-03-22T06:25:41.996Z,99.9
2019-03-22T06:26:49.193Z,99.9
2019-03-22T06:27:56.113Z,99.9
2019-03-22T06:29:03.308Z,99.9
2019-03-22T06:30:10.600Z,99.9
2019-03-22T06:31:17.800Z,99.9
2019-03-22T06:32:27.428Z,99.9
2019-03-22T06:33:34.629Z,99.9
2019-03-22T06:34:41.829Z,99.9
2019-03-22T06:35:49.032Z,99.9
2019-03-22T06:36:55.956Z,99.9
2019-03-22T06:38:03.152Z,99.9
2019-03-22T06:39:10.352Z,99.9
2019-03-22T06:40:17.277Z,99.9
2019-03-22T06:41:24.474Z,99.9
2019-03-22T06:42:31.676Z,99.9
2019-03-22T06:43:38.922Z,99.9
2019-03-22T06:44:46.119Z,99.9
2019-03-22T06:45:53.324Z,99.9
2019-03-22T06:47:00.519Z,99.9
2019-03-22T06:48:07.447Z,99.9
2019-03-22T06:49:14.643Z,99.9
2019-03-22T06:50:21.575Z,99.9
2019-03-22T06:51:28.797Z,99.9
2019-03-22T06:52:35.997Z,99.9
2019-03-22T06:53:43.223Z,99.9
2019-03-22T06:54:50.417Z,99.9
2019-03-22T06:55:57.349Z,99.9
2019-03-22T06:57:04.267Z,99.9
2019-03-22T06:58:11.465Z,99.9
2019-03-22T07:00:40.516Z,99.9
2019-03-22T07:01:47.723Z,99.9
2019-03-22T07:02:54.931Z,99.9
2019-03-22T07:04:02.135Z,99.9
2019-03-22T07:05:09.336Z,99.9
2019-03-22T07:06:16.272Z,99.9
2019-03-22T07:07:23.480Z,99.9
2019-03-22T07:08:30.689Z,99.9
2019-03-22T07:09:37.889Z,99.9
2019-03-22T07:10:45.088Z,99.9
2019-03-22T07:11:52.295Z,99.9
2019-03-22T07:12:59.502Z,99.9
2019-03-22T07:14:06.702Z,99.9
2019-03-22T07:15:13.903Z,99.9
2019-03-22T07:16:21.105Z,99.9
2019-03-22T07:17:28.303Z,99.9
2019-03-22T07:18:35.239Z,99.9
2019-03-22T07:19:41.890Z,99.9
2019-03-22T07:20:49.084Z,99.9
2019-03-22T07:21:56.282Z,99.9
2019-03-22T07:23:03.491Z,99.9
2019-03-22T07:24:10.405Z,99.9
2019-03-22T07:25:17.602Z,99.9
2019-03-22T07:26:24.527Z,99.9
2019-03-22T07:27:31.736Z,99.9
2019-03-22T07:28:38.937Z,99.9
2019-03-22T07:29:46.142Z,99.9
2019-03-22T07:30:53.351Z,99.9
2019-03-22T07:32:00.554Z,99.9
2019-03-22T07:33:07.759Z,99.9
2019-03-22T07:34:14.697Z,99.9
2019-03-22T07:35:21.994Z,99.9
2019-03-22T07:36:28.925Z,99.9
2019-03-22T07:37:35.852Z,99.9
2019-03-22T07:38:43.064Z,99.9
2019-03-22T07:39:49.991Z,99.9
2019-03-22T07:40:57.191Z,99.9
2019-03-22T07:42:04.389Z,99.9
2019-03-22T07:43:11.606Z,99.9
2019-03-22T07:44:18.526Z,99.9
2019-03-22T07:45:25.733Z,99.9
2019-03-22T07:46:32.929Z,99.9
2019-03-22T07:47:40.133Z,99.9
2019-03-22T07:48:47.326Z,99.9
2019-03-22T07:49:54.253Z,99.9
2019-03-22T07:51:01.460Z,99.9
2019-03-22T07:52:08.660Z,99.9
2019-03-22T07:53:15.618Z,99.9
2019-03-22T07:54:22.804Z,99.9
2019-03-22T07:55:29.731Z,99.9
2019-03-22T07:56:36.939Z,99.9
2019-03-22T07:57:43.874Z,99.9
2019-03-22T07:58:51.088Z,99.9
2019-03-22T07:59:58.294Z,99.9
2019-03-22T08:01:05.501Z,99.9
2019-03-22T08:02:12.710Z,99.9
2019-03-22T08:03:19.636Z,99.9
2019-03-22T08:04:26.843Z,99.9
2019-03-22T08:05:34.050Z,99.9
2019-03-22T08:06:40.981Z,99.9
2019-03-22T08:07:48.212Z,99.9
2019-03-22T08:08:55.419Z,99.9
2019-03-22T08:10:02.658Z,99.9
2019-03-22T08:11:09.536Z,99.9
2019-03-22T08:12:19.373Z,99.9
2019-03-22T08:13:26.459Z,99.9
2019-03-22T08:14:33.678Z,99.9
2019-03-22T08:15:40.607Z,99.9
2019-03-22T08:16:47.837Z,99.9
2019-03-22T08:17:56.963Z,99.9
2019-03-22T08:19:04.280Z,99.9
2019-03-22T08:20:11.218Z,99.9
2019-03-22T08:21:18.448Z,99.9
2019-03-22T08:22:25.639Z,99.9
2019-03-22T08:23:32.872Z,99.9
2019-03-22T08:24:40.116Z,99.9
2019-03-22T08:25:47.052Z,99.9
2019-03-22T08:26:53.983Z,99.9
2019-03-22T08:28:01.417Z,99.9
2019-03-22T08:29:08.696Z,99.9
2019-03-22T08:30:15.938Z,99.9
2019-03-22T08:31:23.136Z,99.9
2019-03-22T08:32:30.345Z,99.9
2019-03-22T08:33:37.342Z,99.9
2019-03-22T08:34:44.048Z,99.9
2019-03-22T08:35:54.038Z,99.9
2019-03-22T08:37:01.260Z,99.9
2019-03-22T08:38:08.465Z,99.9
2019-03-22T08:39:15.731Z,99.9
2019-03-22T08:40:22.967Z,99.9
2019-03-22T08:41:30.159Z,99.9
2019-03-22T08:42:37.428Z,99.9
2019-03-22T08:43:44.679Z,99.9
2019-03-22T08:44:51.664Z,99.9
2019-03-22T08:45:58.885Z,99.9
2019-03-22T08:47:06.179Z,99.9
2019-03-22T08:48:13.471Z,99.9
2019-03-22T08:49:20.521Z,99.9
2019-03-22T08:50:28.131Z,99.9
2019-03-22T08:51:35.430Z,99.9
2019-03-22T08:52:42.636Z,97.1
2019-03-22T08:53:54.907Z,99.9
2019-03-22T08:55:02.617Z,99.9
2019-03-22T08:56:09.883Z,99.9
2019-03-22T08:57:17.312Z,99.9
2019-03-22T08:58:24.522Z,99.9
2019-03-22T08:59:31.744Z,99.9
2019-03-22T09:00:39.917Z,93.4
2019-03-22T09:01:47.225Z,96.6
2019-03-22T09:02:54.485Z,99.9
2019-03-22T09:04:01.710Z,96.2
2019-03-22T09:05:08.902Z,98.1
2019-03-22T09:06:16.108Z,96.5
2019-03-22T09:07:24.520Z,96
2019-03-22T09:08:31.817Z,69.9
2019-03-22T09:09:41.542Z,57.4
2019-03-22T09:10:49.087Z,79.1
2019-03-22T09:11:56.029Z,73.7
2019-03-22T09:13:02.995Z,85.5
2019-03-22T09:14:10.342Z,86.9
2019-03-22T09:15:17.561Z,78.1
2019-03-22T09:16:24.523Z,88.8
2019-03-22T09:17:31.755Z,73.3
2019-03-22T09:18:39.039Z,88.9
2019-03-22T09:19:45.955Z,72.7
2019-03-22T09:20:53.162Z,76.1
2019-03-22T09:22:00.197Z,74.6
2019-03-22T09:23:07.550Z,50.3
2019-03-22T09:24:14.784Z,69.4
2019-03-22T09:25:24.832Z,78.4
2019-03-22T09:26:31.813Z,59.8
2019-03-22T09:27:39.036Z,60.4
2019-03-22T09:28:46.246Z,52
2019-03-22T09:29:53.493Z,51.4
2019-03-22T09:31:09.945Z,58
2019-03-22T09:32:18.958Z,48.2
2019-03-22T09:33:26.150Z,41.6
2019-03-22T09:34:34.216Z,50.7
2019-03-22T09:35:41.497Z,46.3
2019-03-22T09:36:48.830Z,50
2019-03-22T09:37:56.102Z,56.8
2019-03-22T09:39:03.044Z,50.3
2019-03-22T09:40:10.153Z,44
2019-03-22T09:41:17.397Z,36.5
2019-03-22T09:42:24.612Z,38.1
2019-03-22T09:43:31.549Z,15.2
2019-03-22T09:44:42.960Z,5.6
2019-03-22T09:45:52.095Z,4.7
2019-03-22T09:46:59.470Z,1.1
2019-03-22T09:48:06.742Z,7.5
2019-03-22T09:49:13.964Z,15.1
2019-03-22T09:50:21.200Z,1
2019-03-22T09:51:28.258Z,1
2019-03-22T09:52:35.527Z,1
2019-03-22T09:53:42.476Z,2
2019-03-22T09:54:49.687Z,1
2019-03-22T09:55:56.908Z,1
2019-03-22T09:57:04.135Z,1
2019-03-22T09:58:11.359Z,1
2019-03-22T09:59:18.679Z,1
2019-03-22T10:00:25.959Z,1
2019-03-22T10:01:33.276Z,1
2019-03-22T10:02:40.510Z,1
2019-03-22T10:03:47.733Z,1
2019-03-22T10:04:54.958Z,1
2019-03-22T10:06:01.919Z,1
2019-03-22T10:07:09.189Z,1
2019-03-22T10:08:16.496Z,1
2019-03-22T10:09:23.687Z,1
2019-03-22T10:10:30.897Z,1
2019-03-22T10:11:38.155Z,1
2019-03-22T10:12:45.379Z,1
2019-03-22T10:13:52.658Z,1
2019-03-22T10:14:59.930Z,1
2019-03-22T10:16:07.306Z,1
2019-03-22T10:17:14.543Z,1
2019-03-22T10:18:21.476Z,1
2019-03-22T10:19:28.732Z,1
2019-03-22T10:20:35.960Z,1
2019-03-22T10:21:43.285Z,1
2019-03-22T10:22:50.629Z,1
2019-03-22T10:23:57.932Z,1
2019-03-22T10:25:05.144Z,1
2019-03-22T10:26:12.521Z,1
2019-03-22T10:27:19.803Z,1
2019-03-22T10:28:26.747Z,1
2019-03-22T10:29:33.984Z,1
2019-03-22T10:30:41.237Z,1
2019-03-22T10:31:48.468Z,1
2019-03-22T10:32:55.716Z,1
2019-03-22T10:34:02.961Z,1
2019-03-22T10:35:10.212Z,1
2019-03-22T10:36:32.200Z,1
2019-03-22T10:37:39.453Z,1
2019-03-22T10:38:46.749Z,1
2019-03-22T10:39:56.799Z,1
2019-03-22T10:41:03.992Z,1
2019-03-22T10:42:11.258Z,1
2019-03-22T10:43:17.951Z,1
2019-03-22T10:44:25.204Z,1
2019-03-22T10:45:32.519Z,1
2019-03-22T10:46:39.773Z,1
2019-03-22T10:47:46.972Z,1
2019-03-22T10:48:54.277Z,1
2019-03-22T10:50:01.339Z,1
2019-03-22T10:51:08.732Z,1
2019-03-22T10:52:15.955Z,1
2019-03-22T10:53:22.890Z,1
2019-03-22T10:54:30.204Z,1
2019-03-22T10:55:37.473Z,1
2019-03-22T10:56:44.680Z,1
2019-03-22T10:57:51.638Z,1
2019-03-22T10:59:02.168Z,1
2019-03-22T11:00:09.383Z,1
2019-03-22T11:01:16.601Z,1
2019-03-22T11:02:23.814Z,1
2019-03-22T11:03:31.055Z,1
2019-03-22T11:04:38.108Z,1
2019-03-22T11:05:45.067Z,1
2019-03-22T11:06:52.258Z,1
2019-03-22T11:07:59.467Z,1
2019-03-22T11:09:06.677Z,1
2019-03-22T11:10:13.740Z,1
2019-03-22T11:11:21.002Z,1
2019-03-22T11:12:28.200Z,1
2019-03-22T11:13:35.414Z,1
2019-03-22T11:14:42.624Z,1
2019-03-22T11:15:51.971Z,1
2019-03-22T11:16:59.186Z,1
2019-03-22T11:18:06.403Z,1
2019-03-22T11:19:13.603Z,1
2019-03-22T11:20:20.261Z,1
2019-03-22T11:21:27.473Z,1
2019-03-22T11:22:34.686Z,1
2019-03-22T11:23:41.891Z,1
2019-03-22T11:24:49.101Z,1
2019-03-22T11:26:03.769Z,1
2019-03-22T11:27:13.629Z,1
2019-03-22T11:28:20.970Z,1
2019-03-22T11:29:27.906Z,1
2019-03-22T11:30:35.116Z,1
2019-03-22T11:31:42.336Z,1
2019-03-22T11:32:49.550Z,1
2019-03-22T11:33:56.759Z,1
2019-03-22T11:35:03.432Z,1
2019-03-22T11:36:10.631Z,1
2019-03-22T11:37:17.850Z,1
2019-03-22T11:38:24.810Z,1
2019-03-22T11:39:32.018Z,1
2019-03-22T11:40:38.956Z,1
2019-03-22T11:41:45.890Z,1
2019-03-22T11:42:53.102Z,1
2019-03-22T11:44:00.313Z,1
2019-03-22T11:45:07.273Z,1
2019-03-22T11:46:14.203Z,1
2019-03-22T11:47:21.420Z,1
2019-03-22T11:48:28.364Z,1
2019-03-22T11:49:35.306Z,1
2019-03-22T11:50:42.520Z,1
2019-03-22T11:51:49.735Z,1
2019-03-22T11:52:56.672Z,1
2019-03-22T11:54:03.885Z,1
2019-03-22T11:55:10.842Z,1
2019-03-22T11:56:18.092Z,1
2019-03-22T11:57:25.300Z,1
2019-03-22T11:58:32.514Z,1
2019-03-22T11:59:39.735Z,1
2019-03-22T12:00:46.676Z,1
2019-03-22T12:01:53.895Z,1
2019-03-22T12:03:01.104Z,1
2019-03-22T12:04:08.315Z,1
2019-03-22T12:05:17.661Z,1
2019-03-22T12:06:24.878Z,1
2019-03-22T12:07:34.087Z,1
2019-03-22T12:08:41.305Z,1
2019-03-22T12:09:48.516Z,1
2019-03-22T12:10:55.728Z,1
2019-03-22T12:12:02.941Z,1
2019-03-22T12:13:09.882Z,1
2019-03-22T12:14:17.096Z,1
2019-03-22T12:15:24.331Z,1
2019-03-22T12:16:31.547Z,1
2019-03-22T12:17:38.496Z,1
2019-03-22T12:18:45.713Z,1
2019-03-22T12:19:52.918Z,1
2019-03-22T12:21:00.140Z,1
2019-03-22T12:22:07.353Z,1
2019-03-22T12:23:14.290Z,1
2019-03-22T12:24:21.502Z,1
2019-03-22T12:25:28.716Z,1
2019-03-22T12:26:35.926Z,1
2019-03-22T12:27:42.869Z,1
2019-03-22T12:28:50.083Z,1
2019-03-22T12:29:57.295Z,1
2019-03-22T12:31:04.507Z,1
2019-03-22T12:32:11.719Z,1
2019-03-22T12:33:18.933Z,1
2019-03-22T12:34:26.151Z,1
2019-03-22T12:35:33.366Z,1
2019-03-22T12:36:40.577Z,1
2019-03-22T12:37:47.790Z,1
2019-03-22T12:38:55.003Z,1
2019-03-22T12:40:02.223Z,1
2019-03-22T12:41:09.438Z,1
2019-03-22T12:42:16.651Z,1
2019-03-22T12:43:23.867Z,1
2019-03-22T12:44:31.077Z,1
2019-03-22T12:45:38.299Z,1
2019-03-22T12:46:45.234Z,1
2019-03-22T12:47:52.446Z,1
2019-03-22T12:48:59.661Z,1
2019-03-22T12:50:06.874Z,1
2019-03-22T12:51:13.542Z,1
2019-03-22T12:52:20.755Z,1
2019-03-22T12:53:27.707Z,1
2019-03-22T12:54:34.648Z,1
2019-03-22T12:55:41.863Z,1
2019-03-22T12:56:48.807Z,1
2019-03-22T12:57:56.031Z,1
2019-03-22T12:59:05.337Z,1
2019-03-22T13:00:12.539Z,1
2019-03-22T13:01:19.747Z,1
2019-03-22T13:02:27.179Z,1
2019-03-22T13:03:34.403Z,1
2019-03-22T13:04:41.625Z,1
2019-03-22T13:05:48.565Z,1
2019-03-22T13:06:55.805Z,1
2019-03-22T13:08:03.038Z,1
2019-03-22T13:09:10.245Z,1
2019-03-22T13:10:17.471Z,1
2019-03-22T13:11:24.691Z,1
2019-03-22T13:12:31.905Z,1
2019-03-22T13:13:38.841Z,1
2019-03-22T13:14:45.813Z,1
2019-03-22T13:15:53.029Z,1
2019-03-22T13:16:59.971Z,1
2019-03-22T13:18:07.188Z,1
2019-03-22T13:19:14.412Z,1
2019-03-22T13:20:21.634Z,1
2019-03-22T13:21:28.857Z,1
2019-03-22T13:22:35.807Z,1
2019-03-22T13:23:43.024Z,1
2019-03-22T13:24:49.971Z,1
2019-03-22T13:25:56.640Z,1
2019-03-22T13:27:03.584Z,1
2019-03-22T13:28:10.799Z,1
2019-03-22T13:29:18.014Z,1
2019-03-22T13:30:25.229Z,1
2019-03-22T13:31:32.172Z,1
2019-03-22T13:32:39.391Z,1
2019-03-22T13:33:46.341Z,1
2019-03-22T13:34:53.557Z,1
2019-03-22T13:36:00.774Z,1
2019-03-22T13:37:07.726Z,1
2019-03-22T13:38:14.973Z,1
2019-03-22T13:39:22.192Z,1
2019-03-22T13:40:29.154Z,1
2019-03-22T13:41:36.366Z,1
2019-03-22T13:42:43.027Z,1
2019-03-22T13:43:50.247Z,1
2019-03-22T13:44:57.463Z,1
2019-03-22T13:46:04.408Z,1
2019-03-22T13:47:11.351Z,1
2019-03-22T13:48:18.604Z,1
2019-03-22T13:49:25.864Z,1
2019-03-22T13:50:33.071Z,1
2019-03-22T13:51:40.286Z,1
2019-03-22T13:52:47.226Z,1
2019-03-22T13:53:54.530Z,1
2019-03-22T13:55:01.478Z,1
2019-03-22T13:56:08.693Z,1
2019-03-22T13:57:15.911Z,1
2019-03-22T13:58:23.131Z,1
2019-03-22T13:59:30.408Z,1
2019-03-22T14:00:37.625Z,1
2019-03-22T14:01:44.297Z,1
2019-03-22T14:02:51.514Z,1
2019-03-22T14:04:09.830Z,1
2019-03-22T14:05:17.098Z,1
2019-03-22T14:06:24.323Z,1
2019-03-22T14:07:31.535Z,1
2019-03-22T14:08:38.750Z,1
2019-03-22T14:09:45.970Z,1
2019-03-22T14:10:52.910Z,1
2019-03-22T14:11:59.857Z,1
2019-03-22T14:13:07.075Z,1
2019-03-22T14:14:14.299Z,1
2019-03-22T14:15:21.247Z,1
2019-03-22T14:16:28.467Z,1
2019-03-22T14:17:35.685Z,1
2019-03-22T14:18:42.899Z,1
2019-03-22T14:19:50.116Z,1
2019-03-22T14:20:57.557Z,1
2019-03-22T14:22:04.774Z,1
2019-03-22T14:23:11.990Z,1
2019-03-22T14:24:19.202Z,1
2019-03-22T14:25:26.148Z,1
2019-03-22T14:26:33.370Z,1
2019-03-22T14:27:40.307Z,1
2019-03-22T14:28:47.521Z,1
2019-03-22T14:29:54.734Z,1
2019-03-22T14:31:01.957Z,1
2019-03-22T14:32:09.174Z,1
2019-03-22T14:33:16.392Z,1
2019-03-22T14:34:23.605Z,1
2019-03-22T14:35:30.823Z,1
2019-03-22T14:36:38.033Z,1
2019-03-22T14:37:45.280Z,1
2019-03-22T14:38:52.499Z,1
2019-03-22T14:39:59.714Z,1
2019-03-22T14:41:06.928Z,1
2019-03-22T14:42:14.140Z,1
2019-03-22T14:43:21.356Z,1
2019-03-22T14:44:28.436Z,1
2019-03-22T14:45:35.640Z,1
2019-03-22T14:46:42.864Z,1
2019-03-22T14:47:49.571Z,1
2019-03-22T14:48:56.777Z,1
2019-03-22T14:50:03.993Z,1
2019-03-22T14:51:11.207Z,1
2019-03-22T14:52:18.425Z,1
2019-03-22T14:53:25.650Z,1
2019-03-22T14:54:32.872Z,1
2019-03-22T14:55:40.088Z,1
2019-03-22T14:56:47.307Z,1
2019-03-22T14:57:54.536Z,1
2019-03-22T14:59:01.465Z,1
2019-03-22T15:00:08.410Z,1
2019-03-22T15:01:15.356Z,1
2019-03-22T15:02:22.569Z,1
2019-03-22T15:03:29.788Z,1
2019-03-22T15:04:36.728Z,1
2019-03-22T15:05:43.951Z,1
2019-03-22T15:06:50.890Z,1
2019-03-22T15:07:58.110Z,1
2019-03-22T15:09:05.055Z,1
2019-03-22T15:10:12.270Z,1
2019-03-22T15:11:19.485Z,1
2019-03-22T15:12:26.173Z,1
2019-03-22T15:13:33.387Z,1
2019-03-22T15:14:40.608Z,1
2019-03-22T15:15:47.550Z,1
2019-03-22T15:16:54.764Z,1
2019-03-22T15:18:01.978Z,1
2019-03-22T15:19:09.191Z,1
2019-03-22T15:20:16.406Z,1
2019-03-22T15:21:23.634Z,1
2019-03-22T15:22:30.853Z,1
2019-03-22T15:23:38.072Z,1
2019-03-22T15:24:45.288Z,1
2019-03-22T15:25:52.226Z,1
2019-03-22T15:26:59.177Z,1
2019-03-22T15:28:06.407Z,1
2019-03-22T15:30:21.644Z,1
2019-03-22T15:31:28.859Z,1
2019-03-22T15:32:35.801Z,1